Time;durP1;ratioP1;P1;durP2;ratioP2;P2;SDS_P1;SDS_P2;PMS_P1;PMS_P2;Temp;Humidity;BMP_temperature;BMP_pressure;BME280_temperature;BME280_humidity;BME280_pressure;Samples;Min_cycle;Max_cycle;Signal;HPM_P1;HPM_P2
2023/05/04 00:00:18;;;;;;;8.07;5.72;;;;;;;;;;5088812;28;20044;-67
2023/05/04 00:02:44;;;;;;;7.43;5.65;;;;;;;;;;5086363;28;20501;-68
2023/05/04 00:05:11;;;;;;;8.55;6.22;;;;;;;;;;5082033;28;20048;-68
2023/05/04 00:07:37;;;;;;;11.73;6.10;;;;;;;;;;5083970;28;20410;-68
2023/05/04 00:10:03;;;;;;;11.60;5.72;;;;;;;;;;5102913;28;20487;-68
2023/05/04 00:12:29;;;;;;;11.27;5.88;;;;;;;;;;5080727;28;20036;-68
2023/05/04 00:14:55;;;;;;;10.25;5.82;;;;;;;;;;5086612;28;20040;-68
2023/05/04 00:17:22;;;;;;;9.25;6.03;;;;;;;;;;5087895;28;20036;-68
2023/05/04 00:19:49;;;;;;;9.48;6.32;;;;;;;;;;5088612;28;20040;-68
2023/05/04 00:22:15;;;;;;;10.60;5.68;;;;;;;;;;5085030;28;20090;-68
2023/05/04 00:24:43;;;;;;;9.70;6.20;;;;;;;;;;5068283;28;20051;-68
2023/05/04 00:27:09;;;;;;;10.43;6.45;;;;;;;;;;5090937;28;20114;-68
2023/05/04 00:29:35;;;;;;;9.23;5.68;;;;;;;;;;5085160;28;20127;-68
2023/05/04 00:32:01;;;;;;;11.15;5.53;;;;;;;;;;5086243;28;20047;-68
2023/05/04 00:34:28;;;;;;;7.57;5.15;;;;;;;;;;5088326;28;20028;-67
2023/05/04 00:36:55;;;;;;;8.77;5.22;;;;;;;;;;5084709;28;20040;-68
2023/05/04 00:39:21;;;;;;;10.23;5.88;;;;;;;;;;5084928;28;20431;-68
2023/05/04 00:41:47;;;;;;;7.82;5.10;;;;;;;;;;5088731;28;20402;-67
2023/05/04 00:44:13;;;;;;;8.07;5.13;;;;;;;;;;5084801;28;20059;-67
2023/05/04 00:46:40;;;;;;;7.63;5.00;;;;;;;;;;5087404;28;20081;-68
2023/05/04 00:49:07;;;;;;;10.00;5.88;;;;;;;;;;5106362;28;20040;-67
2023/05/04 00:51:33;;;;;;;11.52;5.43;;;;;;;;;;5080684;28;20502;-68
2023/05/04 00:53:59;;;;;;;10.25;6.15;;;;;;;;;;5088547;28;20043;-69
2023/05/04 00:56:25;;;;;;;10.88;6.03;;;;;;;;;;5095838;28;20060;-68
2023/05/04 00:58:53;;;;;;;8.13;5.38;;;;;;;;;;5088055;28;20437;-67
2023/05/04 01:01:22;;;;;;;9.82;5.50;;;;;;;;;;5090280;28;20384;-67
2023/05/04 01:03:52;;;;;;;9.13;5.53;;;;;;;;;;5093434;28;20076;-67
2023/05/04 01:06:31;;;;;;;10.93;6.18;;;;;;;;;;5095847;28;20048;-68
2023/05/04 01:09:12;;;;;;;9.40;5.45;;;;;;;;;;5081205;28;20065;-68
2023/05/04 01:12:04;;;;;;;8.23;5.72;;;;;;;;;;5088461;28;20040;-67
2023/05/04 01:14:30;;;;;;;12.02;5.90;;;;;;;;;;5083510;28;20113;-68
2023/05/04 01:16:59;;;;;;;10.70;5.95;;;;;;;;;;5084594;28;20435;-68
2023/05/04 01:19:27;;;;;;;9.93;6.03;;;;;;;;;;5084319;28;20067;-68
2023/05/04 01:21:53;;;;;;;6.97;5.28;;;;;;;;;;5086003;28;20059;-67
2023/05/04 01:24:20;;;;;;;10.85;5.47;;;;;;;;;;5077485;28;20031;-68
2023/05/04 01:26:48;;;;;;;8.40;5.90;;;;;;;;;;5090886;28;20056;-67
2023/05/04 01:29:24;;;;;;;10.60;5.65;;;;;;;;;;5088354;28;20088;-67
2023/05/04 01:31:52;;;;;;;9.15;5.28;;;;;;;;;;5090978;28;20044;-67
2023/05/04 01:34:18;;;;;;;8.90;5.25;;;;;;;;;;5083870;28;20085;-68
2023/05/04 01:36:45;;;;;;;10.98;6.15;;;;;;;;;;5088108;28;20048;-68
2023/05/04 01:39:11;;;;;;;10.60;6.00;;;;;;;;;;5084153;28;20131;-68
2023/05/04 01:41:37;;;;;;;9.40;5.53;;;;;;;;;;5086488;28;20174;-68
2023/05/04 01:44:03;;;;;;;7.63;5.78;;;;;;;;;;5087489;28;20123;-68
2023/05/04 01:46:30;;;;;;;8.07;5.90;;;;;;;;;;5088291;28;20036;-68
2023/05/04 01:48:56;;;;;;;13.02;6.43;;;;;;;;;;5080405;28;20460;-67
2023/05/04 01:51:22;;;;;;;10.15;5.97;;;;;;;;;;5100295;28;20131;-68
2023/05/04 01:53:48;;;;;;;11.75;6.20;;;;;;;;;;5088380;28;20051;-68
2023/05/04 01:56:14;;;;;;;7.63;5.68;;;;;;;;;;5083813;28;20063;-66
2023/05/04 01:58:40;;;;;;;8.80;5.82;;;;;;;;;;5086966;28;20441;-68
2023/05/04 02:01:07;;;;;;;7.82;5.50;;;;;;;;;;5083230;28;20487;-68
2023/05/04 02:03:33;;;;;;;9.40;6.25;;;;;;;;;;5084337;28;20674;-68
2023/05/04 02:05:59;;;;;;;9.80;6.43;;;;;;;;;;5079612;28;20105;-67
2023/05/04 02:08:25;;;;;;;7.32;5.47;;;;;;;;;;5083136;28;20043;-67
2023/05/04 02:10:51;;;;;;;10.27;6.07;;;;;;;;;;5086140;28;20056;-68
2023/05/04 02:13:18;;;;;;;8.60;5.95;;;;;;;;;;5087250;28;20066;-67
2023/05/04 02:15:44;;;;;;;7.28;5.68;;;;;;;;;;5083638;28;20448;-67
2023/05/04 02:18:10;;;;;;;8.77;6.10;;;;;;;;;;5088952;28;20044;-67
2023/05/04 02:20:36;;;;;;;9.13;5.57;;;;;;;;;;5088640;28;20040;-68
2023/05/04 02:23:02;;;;;;;8.10;5.57;;;;;;;;;;5091396;28;20383;-67
2023/05/04 02:25:28;;;;;;;8.38;5.80;;;;;;;;;;5087894;28;20044;-68
2023/05/04 02:27:54;;;;;;;10.07;6.13;;;;;;;;;;5087970;28;20044;-68
2023/05/04 02:30:20;;;;;;;11.30;6.13;;;;;;;;;;5091207;28;20044;-68
2023/05/04 02:32:46;;;;;;;9.77;6.15;;;;;;;;;;5091880;28;20483;-67
2023/05/04 02:35:12;;;;;;;9.40;6.43;;;;;;;;;;5094084;28;20044;-68
2023/05/04 02:37:38;;;;;;;11.93;6.30;;;;;;;;;;5091237;28;20086;-68
2023/05/04 02:40:05;;;;;;;13.23;6.72;;;;;;;;;;5091856;28;20469;-67
2023/05/04 02:42:31;;;;;;;9.50;6.00;;;;;;;;;;5085078;28;20107;-67
2023/05/04 02:44:57;;;;;;;7.88;5.93;;;;;;;;;;5087561;28;20097;-67
2023/05/04 02:47:23;;;;;;;11.30;6.53;;;;;;;;;;5090798;28;20131;-68
2023/05/04 02:49:49;;;;;;;12.70;7.03;;;;;;;;;;5092914;28;20084;-67
2023/05/04 02:52:15;;;;;;;10.23;6.20;;;;;;;;;;5082875;28;20044;-67
2023/05/04 02:54:41;;;;;;;12.15;6.50;;;;;;;;;;5088298;28;20189;-67
2023/05/04 02:57:07;;;;;;;9.73;6.55;;;;;;;;;;5085813;28;20049;-68
2023/05/04 02:59:33;;;;;;;13.10;6.75;;;;;;;;;;5087768;28;20060;-68
2023/05/04 03:01:59;;;;;;;8.77;6.47;;;;;;;;;;5089101;28;20038;-68
2023/05/04 03:04:26;;;;;;;10.98;6.47;;;;;;;;;;5088442;28;20391;-68
2023/05/04 03:06:52;;;;;;;11.68;6.63;;;;;;;;;;5089077;28;20110;-67
2023/05/04 03:09:18;;;;;;;10.25;5.93;;;;;;;;;;5084368;28;20056;-68
2023/05/04 03:11:44;;;;;;;11.40;6.32;;;;;;;;;;5091996;28;20048;-67
2023/05/04 03:14:10;;;;;;;10.48;6.20;;;;;;;;;;5086952;28;20208;-67
2023/05/04 03:16:36;;;;;;;8.77;5.78;;;;;;;;;;5087711;28;20059;-67
2023/05/04 03:19:02;;;;;;;11.23;6.55;;;;;;;;;;5085335;28;20086;-68
2023/05/04 03:21:28;;;;;;;8.85;6.15;;;;;;;;;;5068564;28;20079;-67
2023/05/04 03:23:54;;;;;;;9.88;6.80;;;;;;;;;;5087399;28;20048;-67
2023/05/04 03:26:20;;;;;;;12.90;6.60;;;;;;;;;;5082176;28;20055;-67
2023/05/04 03:28:46;;;;;;;8.55;6.07;;;;;;;;;;5089070;28;20048;-67
2023/05/04 03:31:12;;;;;;;10.50;6.80;;;;;;;;;;5091078;28;20063;-67
2023/05/04 03:33:38;;;;;;;9.10;6.15;;;;;;;;;;5090662;28;20055;-68
2023/05/04 03:36:05;;;;;;;10.80;6.30;;;;;;;;;;5091068;28;20511;-67
2023/05/04 03:38:31;;;;;;;10.13;6.00;;;;;;;;;;5093668;28;20047;-68
2023/05/04 03:40:57;;;;;;;10.88;6.53;;;;;;;;;;5093942;28;20048;-67
2023/05/04 03:43:23;;;;;;;8.63;6.25;;;;;;;;;;5092231;28;20040;-68
2023/05/04 03:45:49;;;;;;;8.50;5.75;;;;;;;;;;5084433;28;20100;-68
2023/05/04 03:48:15;;;;;;;10.25;6.38;;;;;;;;;;5090448;28;20044;-67
2023/05/04 03:50:41;;;;;;;14.40;7.68;;;;;;;;;;5089804;28;20126;-68
2023/05/04 03:53:07;;;;;;;10.60;6.63;;;;;;;;;;5079324;28;20531;-68
2023/05/04 03:55:36;;;;;;;11.13;6.55;;;;;;;;;;5092218;28;20052;-67
2023/05/04 03:58:02;;;;;;;11.05;6.70;;;;;;;;;;5090018;28;20044;-67
2023/05/04 04:00:28;;;;;;;12.15;7.32;;;;;;;;;;5089441;28;20071;-67
2023/05/04 04:02:55;;;;;;;14.10;8.00;;;;;;;;;;5088765;28;20075;-67
2023/05/04 04:05:21;;;;;;;12.45;8.30;;;;;;;;;;5090462;28;20044;-67
2023/05/04 04:07:47;;;;;;;11.57;7.70;;;;;;;;;;5088304;28;20048;-67
2023/05/04 04:10:13;;;;;;;10.27;6.72;;;;;;;;;;5089740;28;20044;-67
2023/05/04 04:12:39;;;;;;;10.75;7.03;;;;;;;;;;5096212;28;20127;-67
2023/05/04 04:15:05;;;;;;;12.25;7.20;;;;;;;;;;5084821;28;20047;-67
2023/05/04 04:17:31;;;;;;;12.27;7.18;;;;;;;;;;5089530;28;20544;-68
2023/05/04 04:19:57;;;;;;;14.70;7.93;;;;;;;;;;5090387;28;20043;-67
2023/05/04 04:22:23;;;;;;;12.48;7.55;;;;;;;;;;5076847;28;20059;-68
2023/05/04 04:24:49;;;;;;;10.65;7.22;;;;;;;;;;5085753;28;20036;-67
2023/05/04 04:27:15;;;;;;;11.02;6.75;;;;;;;;;;5086808;28;20169;-68
2023/05/04 04:29:41;;;;;;;11.63;7.60;;;;;;;;;;5088006;28;20040;-68
2023/05/04 04:32:07;;;;;;;11.50;7.50;;;;;;;;;;5076159;28;20040;-68
2023/05/04 04:34:34;;;;;;;13.85;8.30;;;;;;;;;;5078760;28;20135;-67
2023/05/04 04:37:00;;;;;;;12.95;8.02;;;;;;;;;;5096238;28;20482;-68
2023/05/04 04:39:26;;;;;;;13.23;8.35;;;;;;;;;;5087756;28;20043;-68
2023/05/04 04:41:52;;;;;;;12.32;7.30;;;;;;;;;;5082878;28;20060;-67
2023/05/04 04:44:19;;;;;;;10.90;7.78;;;;;;;;;;5088607;28;20044;-68
2023/05/04 04:46:46;;;;;;;13.90;8.40;;;;;;;;;;5090937;28;20075;-67
2023/05/04 04:49:12;;;;;;;14.27;7.38;;;;;;;;;;5079491;28;20558;-68
2023/05/04 04:51:40;;;;;;;12.55;7.32;;;;;;;;;;5088032;28;20511;-69
2023/05/04 04:54:06;;;;;;;11.50;7.82;;;;;;;;;;5090533;28;20040;-68
2023/05/04 04:56:35;;;;;;;10.98;7.28;;;;;;;;;;5084232;28;20479;-67
2023/05/04 04:59:01;;;;;;;10.98;7.88;;;;;;;;;;5091025;28;20086;-68
2023/05/04 05:01:28;;;;;;;14.23;7.88;;;;;;;;;;5084511;28;20064;-68
2023/05/04 05:03:54;;;;;;;12.98;8.50;;;;;;;;;;5084013;28;20098;-68
2023/05/04 05:06:21;;;;;;;12.90;7.38;;;;;;;;;;5090852;28;20499;-67
2023/05/04 05:08:50;;;;;;;17.08;7.75;;;;;;;;;;5086253;28;20070;-67
2023/05/04 05:11:16;;;;;;;11.43;7.18;;;;;;;;;;5102705;28;20105;-67
2023/05/04 05:13:42;;;;;;;14.02;8.13;;;;;;;;;;5083784;28;20039;-68
2023/05/04 05:16:08;;;;;;;16.67;8.35;;;;;;;;;;5087088;28;20505;-67
2023/05/04 05:18:34;;;;;;;14.57;8.50;;;;;;;;;;5091432;28;20048;-68
2023/05/04 05:21:00;;;;;;;12.38;7.72;;;;;;;;;;5078724;28;20116;-68
2023/05/04 05:23:26;;;;;;;12.95;7.80;;;;;;;;;;5088036;28;20078;-68
2023/05/04 05:25:52;;;;;;;12.88;7.70;;;;;;;;;;5087331;28;20058;-67
2023/05/04 05:28:18;;;;;;;11.68;8.30;;;;;;;;;;5089455;28;20119;-68
2023/05/04 05:30:44;;;;;;;13.70;7.28;;;;;;;;;;5088334;28;20046;-67
2023/05/04 05:33:11;;;;;;;12.45;7.95;;;;;;;;;;5085712;28;20067;-68
2023/05/04 05:35:37;;;;;;;11.05;7.20;;;;;;;;;;5088559;28;20206;-67
2023/05/04 05:38:16;;;;;;;11.63;7.63;;;;;;;;;;5089382;28;20499;-67
2023/05/04 05:40:42;;;;;;;12.25;7.40;;;;;;;;;;5081599;28;20044;-68
2023/05/04 05:43:08;;;;;;;11.93;7.45;;;;;;;;;;5088069;28;20040;-67
2023/05/04 05:45:34;;;;;;;12.85;7.20;;;;;;;;;;5087273;28;20040;-68
2023/05/04 05:48:00;;;;;;;15.82;7.97;;;;;;;;;;5088872;28;20071;-68
2023/05/04 05:50:26;;;;;;;10.82;7.40;;;;;;;;;;5087147;28;20036;-68
2023/05/04 05:52:52;;;;;;;11.63;8.18;;;;;;;;;;5081860;28;20035;-68
2023/05/04 05:55:18;;;;;;;13.02;7.40;;;;;;;;;;5082635;28;20063;-68
2023/05/04 05:57:44;;;;;;;11.75;7.57;;;;;;;;;;5085926;28;20056;-68
2023/05/04 06:00:11;;;;;;;14.77;7.63;;;;;;;;;;5084565;28;20036;-69
2023/05/04 06:02:40;;;;;;;12.80;7.18;;;;;;;;;;5067883;28;20040;-68
2023/05/04 06:05:06;;;;;;;12.80;7.57;;;;;;;;;;5088797;28;20047;-67
2023/05/04 06:07:32;;;;;;;17.40;7.60;;;;;;;;;;5083818;28;20134;-68
2023/05/04 06:09:58;;;;;;;12.10;7.47;;;;;;;;;;5081527;28;20173;-67
2023/05/04 06:12:24;;;;;;;18.83;7.70;;;;;;;;;;5080302;28;20497;-68
2023/05/04 06:14:50;;;;;;;16.33;8.13;;;;;;;;;;5104331;28;20430;-68
2023/05/04 06:17:17;;;;;;;11.88;7.22;;;;;;;;;;5080564;28;20048;-67
2023/05/04 06:19:44;;;;;;;13.13;7.75;;;;;;;;;;5095721;28;20399;-68
2023/05/04 06:22:13;;;;;;;11.00;7.32;;;;;;;;;;5086262;28;20475;-67
2023/05/04 06:24:40;;;;;;;13.32;7.22;;;;;;;;;;5072490;28;20040;-67
2023/05/04 06:27:06;;;;;;;17.20;8.00;;;;;;;;;;5083614;28;20036;-68
2023/05/04 06:29:32;;;;;;;13.57;6.95;;;;;;;;;;5083484;28;20131;-68
2023/05/04 06:31:58;;;;;;;13.50;7.13;;;;;;;;;;5084563;28;20127;-67
2023/05/04 06:34:24;;;;;;;12.98;7.35;;;;;;;;;;5084356;28;20083;-67
2023/05/04 06:36:50;;;;;;;12.40;7.28;;;;;;;;;;5082331;28;20101;-66
2023/05/04 06:39:16;;;;;;;13.18;7.00;;;;;;;;;;5083798;28;20044;-67
2023/05/04 06:41:42;;;;;;;12.50;6.53;;;;;;;;;;5084858;28;20105;-67
2023/05/04 06:44:08;;;;;;;11.98;7.03;;;;;;;;;;5087585;28;20046;-67
2023/05/04 06:46:36;;;;;;;12.38;6.65;;;;;;;;;;5085762;28;20051;-67
2023/05/04 06:49:03;;;;;;;14.85;7.95;;;;;;;;;;5080204;28;20129;-67
2023/05/04 06:51:29;;;;;;;11.10;6.65;;;;;;;;;;5079662;28;20074;-67
2023/05/04 06:53:55;;;;;;;15.95;7.97;;;;;;;;;;5086528;28;20055;-67
2023/05/04 06:56:22;;;;;;;11.60;7.50;;;;;;;;;;5078451;28;20064;-67
2023/05/04 06:58:49;;;;;;;15.15;7.18;;;;;;;;;;5089473;28;20055;-68
2023/05/04 07:01:15;;;;;;;11.57;7.40;;;;;;;;;;5083642;28;20066;-67
2023/05/04 07:03:41;;;;;;;11.90;6.97;;;;;;;;;;5086964;28;20483;-67
2023/05/04 07:06:08;;;;;;;13.10;7.47;;;;;;;;;;5087088;28;20089;-67
2023/05/04 07:08:34;;;;;;;14.23;7.68;;;;;;;;;;5090808;28;20050;-67
2023/05/04 07:11:01;;;;;;;19.15;7.60;;;;;;;;;;5093565;28;20090;-67
2023/05/04 07:13:27;;;;;;;23.70;7.90;;;;;;;;;;5091330;28;20044;-67
2023/05/04 07:15:53;;;;;;;10.98;7.10;;;;;;;;;;5088415;28;20040;-67
2023/05/04 07:18:19;;;;;;;45.67;11.50;;;;;;;;;;5087972;28;20051;-67
2023/05/04 07:20:45;;;;;;;21.00;8.00;;;;;;;;;;5081873;28;20121;-68
2023/05/04 07:23:11;;;;;;;14.18;7.63;;;;;;;;;;5086140;28;20052;-69
2023/05/04 07:25:37;;;;;;;12.75;7.25;;;;;;;;;;5075414;28;20052;-68
2023/05/04 07:28:03;;;;;;;14.80;7.43;;;;;;;;;;5084368;28;20051;-68
2023/05/04 07:30:29;;;;;;;13.38;8.25;;;;;;;;;;5087478;28;20043;-68
2023/05/04 07:32:55;;;;;;;16.88;7.55;;;;;;;;;;5103974;28;20044;-69
2023/05/04 07:35:22;;;;;;;17.98;8.00;;;;;;;;;;5089932;28;20491;-68
2023/05/04 07:37:48;;;;;;;29.27;9.15;;;;;;;;;;5086030;28;20089;-69
2023/05/04 07:40:14;;;;;;;16.08;7.47;;;;;;;;;;5090342;28;20055;-68
2023/05/04 07:42:41;;;;;;;11.88;7.10;;;;;;;;;;5078716;28;20415;-68
2023/05/04 07:45:08;;;;;;;13.90;7.57;;;;;;;;;;5087142;28;20040;-68
2023/05/04 07:47:34;;;;;;;12.50;7.10;;;;;;;;;;5082050;28;20059;-69
2023/05/04 07:50:00;;;;;;;11.90;7.47;;;;;;;;;;5079534;28;20136;-68
2023/05/04 07:52:26;;;;;;;10.73;6.68;;;;;;;;;;5079191;28;20902;-68
2023/05/04 07:54:52;;;;;;;12.25;7.25;;;;;;;;;;5088218;28;20064;-68
2023/05/04 07:57:19;;;;;;;12.07;7.45;;;;;;;;;;5073910;28;20040;-68
2023/05/04 07:59:45;;;;;;;14.75;7.38;;;;;;;;;;5090315;28;20036;-68
2023/05/04 08:02:11;;;;;;;13.43;7.50;;;;;;;;;;5083577;28;20499;-68
2023/05/04 08:04:37;;;;;;;14.95;7.30;;;;;;;;;;5094523;28;20056;-68
2023/05/04 08:07:03;;;;;;;9.48;6.70;;;;;;;;;;5081601;28;20059;-69
2023/05/04 08:09:29;;;;;;;17.85;7.20;;;;;;;;;;5074881;28;20048;-68
2023/05/04 08:11:55;;;;;;;10.95;7.03;;;;;;;;;;5080071;28;20067;-68
2023/05/04 08:14:21;;;;;;;12.32;6.82;;;;;;;;;;5082153;28;20051;-68
2023/05/04 08:16:47;;;;;;;10.70;6.60;;;;;;;;;;5084383;28;20040;-68
2023/05/04 08:19:13;;;;;;;11.05;6.95;;;;;;;;;;5080399;28;20079;-68
2023/05/04 08:21:40;;;;;;;12.65;7.90;;;;;;;;;;5088453;28;20058;-68
2023/05/04 08:24:06;;;;;;;13.25;8.02;;;;;;;;;;5090081;28;20032;-69
2023/05/04 08:26:33;;;;;;;10.57;6.88;;;;;;;;;;5084373;28;20039;-71
2023/05/04 08:29:06;;;;;;;12.57;7.20;;;;;;;;;;5089070;28;20044;-69
2023/05/04 08:31:32;;;;;;;9.20;6.90;;;;;;;;;;5085442;28;20131;-69
2023/05/04 08:33:58;;;;;;;13.73;7.47;;;;;;;;;;5087640;28;20509;-70
2023/05/04 08:36:26;;;;;;;12.60;8.13;;;;;;;;;;5092599;28;20052;-69
2023/05/04 08:38:55;;;;;;;15.18;6.97;;;;;;;;;;5091077;28;20047;-69
2023/05/04 08:41:22;;;;;;;11.30;7.20;;;;;;;;;;5084262;28;20105;-69
2023/05/04 08:43:48;;;;;;;11.05;6.88;;;;;;;;;;5097158;28;20048;-70
2023/05/04 08:46:15;;;;;;;12.52;6.97;;;;;;;;;;5091129;28;20490;-68
2023/05/04 08:48:43;;;;;;;13.70;7.30;;;;;;;;;;5084969;28;20041;-70
2023/05/04 08:51:10;;;;;;;11.70;7.10;;;;;;;;;;5091426;28;20039;-69
2023/05/04 08:53:37;;;;;;;12.80;7.20;;;;;;;;;;5089044;28;20044;-67
2023/05/04 08:56:08;;;;;;;12.68;7.43;;;;;;;;;;5076440;28;20059;-69
2023/05/04 08:58:36;;;;;;;10.05;6.70;;;;;;;;;;5102529;27;20048;-69
2023/05/04 09:01:03;;;;;;;11.60;6.90;;;;;;;;;;5087363;28;20151;-69
2023/05/04 09:03:29;;;;;;;10.48;6.80;;;;;;;;;;5089028;28;20089;-67
2023/05/04 09:05:56;;;;;;;12.02;6.53;;;;;;;;;;5083784;28;20495;-69
2023/05/04 09:08:22;;;;;;;10.20;6.80;;;;;;;;;;5088467;28;20040;-70
2023/05/04 09:10:48;;;;;;;12.15;7.28;;;;;;;;;;5082309;28;20040;-69
2023/05/04 09:13:14;;;;;;;11.25;6.95;;;;;;;;;;5070846;28;20071;-69
2023/05/04 09:15:41;;;;;;;11.15;7.07;;;;;;;;;;5087244;28;20048;-70
2023/05/04 09:18:08;;;;;;;8.98;6.40;;;;;;;;;;5089915;28;20044;-69
2023/05/04 09:20:48;;;;;;;10.95;7.60;;;;;;;;;;5083451;28;20062;-69
2023/05/04 09:23:15;;;;;;;12.30;7.03;;;;;;;;;;5092097;28;20058;-68
2023/05/04 09:25:53;;;;;;;10.43;7.05;;;;;;;;;;5089461;28;20051;-69
2023/05/04 09:28:21;;;;;;;12.35;7.32;;;;;;;;;;5080238;28;20487;-69
2023/05/04 09:30:48;;;;;;;9.43;6.95;;;;;;;;;;5083131;28;20036;-69
2023/05/04 09:33:24;;;;;;;13.25;6.45;;;;;;;;;;5070291;28;20120;-68
2023/05/04 09:35:50;;;;;;;10.27;6.50;;;;;;;;;;5081996;28;20048;-69
2023/05/04 09:38:26;;;;;;;9.43;6.82;;;;;;;;;;5087592;28;20101;-68
2023/05/04 09:40:52;;;;;;;10.55;7.00;;;;;;;;;;5079936;28;20056;-68
2023/05/04 09:43:19;;;;;;;10.55;7.05;;;;;;;;;;5070666;28;20041;-69
2023/05/04 09:45:46;;;;;;;16.08;7.03;;;;;;;;;;5083497;28;20052;-68
2023/05/04 09:48:18;;;;;;;9.48;6.65;;;;;;;;;;5087682;28;20601;-69
2023/05/04 09:50:52;;;;;;;15.77;6.90;;;;;;;;;;5085625;28;20121;-68
2023/05/04 09:53:23;;;;;;;12.18;6.63;;;;;;;;;;5086511;28;20052;-69
2023/05/04 09:55:58;;;;;;;10.50;6.50;;;;;;;;;;5088408;28;20059;-72
2023/05/04 09:58:25;;;;;;;10.27;6.22;;;;;;;;;;5075211;28;20048;-80
2023/05/04 10:00:55;;;;;;;9.70;6.97;;;;;;;;;;5081634;28;20040;-72
2023/05/04 10:03:22;;;;;;;10.50;6.68;;;;;;;;;;5083928;28;20145;-72
2023/05/04 10:05:49;;;;;;;13.77;6.72;;;;;;;;;;5083742;28;20101;-73
2023/05/04 10:08:16;;;;;;;12.63;6.60;;;;;;;;;;5086420;28;21189;-71
2023/05/04 10:10:42;;;;;;;8.82;6.35;;;;;;;;;;5087545;28;20036;-73
2023/05/04 10:13:09;;;;;;;10.98;6.82;;;;;;;;;;5089661;28;20037;-73
2023/05/04 10:15:36;;;;;;;12.02;6.50;;;;;;;;;;5083959;28;20059;-73
2023/05/04 10:18:15;;;;;;;11.80;7.22;;;;;;;;;;5084626;28;20040;-68
2023/05/04 10:20:47;;;;;;;11.05;6.53;;;;;;;;;;5082718;28;20069;-69
2023/05/04 10:23:16;;;;;;;9.90;6.85;;;;;;;;;;5087300;28;20055;-69
2023/05/04 10:25:55;;;;;;;9.25;6.25;;;;;;;;;;5084460;28;20476;-69
2023/05/04 10:28:21;;;;;;;12.23;7.30;;;;;;;;;;5086979;28;20083;-69
2023/05/04 10:30:47;;;;;;;10.73;6.80;;;;;;;;;;5085455;28;20064;-68
2023/05/04 10:33:13;;;;;;;13.20;6.82;;;;;;;;;;5085176;28;20138;-69
2023/05/04 10:35:50;;;;;;;10.00;6.53;;;;;;;;;;5089522;28;20086;-69
2023/05/04 10:38:16;;;;;;;11.75;7.07;;;;;;;;;;5088648;28;20364;-68
2023/05/04 10:40:42;;;;;;;10.73;6.97;;;;;;;;;;5088626;28;20108;-70
2023/05/04 10:43:11;;;;;;;10.55;6.78;;;;;;;;;;5084013;28;20063;-69
2023/05/04 10:45:38;;;;;;;11.25;6.35;;;;;;;;;;5086204;28;20059;-69
2023/05/04 10:48:05;;;;;;;11.93;7.15;;;;;;;;;;5092320;28;20048;-69
2023/05/04 10:51:00;;;;;;;8.23;6.43;;;;;;;;;;5080699;28;20051;-69
2023/05/04 10:53:32;;;;;;;9.38;7.25;;;;;;;;;;5053858;28;20141;-72
2023/05/04 10:55:58;;;;;;;8.35;6.70;;;;;;;;;;5096335;28;20055;-72
2023/05/04 10:58:28;;;;;;;10.35;6.72;;;;;;;;;;5093360;28;20048;-73
2023/05/04 11:00:57;;;;;;;9.27;6.47;;;;;;;;;;5090843;28;20411;-74
2023/05/04 11:03:24;;;;;;;9.55;6.68;;;;;;;;;;5098594;28;20502;-73
2023/05/04 11:05:51;;;;;;;9.77;5.93;;;;;;;;;;5082607;28;20060;-73
2023/05/04 11:08:20;;;;;;;9.40;6.38;;;;;;;;;;5074094;28;20499;-72
2023/05/04 11:10:47;;;;;;;12.60;6.85;;;;;;;;;;5088674;28;20040;-72
2023/05/04 11:13:14;;;;;;;9.00;6.85;;;;;;;;;;5091302;28;20048;-71
2023/05/04 11:15:47;;;;;;;8.80;6.55;;;;;;;;;;5089581;28;20040;-73
2023/05/04 11:18:14;;;;;;;8.90;6.43;;;;;;;;;;5080663;28;20093;-72
2023/05/04 11:20:41;;;;;;;10.73;6.65;;;;;;;;;;5083978;28;20048;-73
2023/05/04 11:23:09;;;;;;;13.05;6.78;;;;;;;;;;5091406;28;20142;-73
2023/05/04 11:25:36;;;;;;;14.32;6.35;;;;;;;;;;5089111;28;20075;-73
2023/05/04 11:28:03;;;;;;;8.35;5.95;;;;;;;;;;5086323;28;20066;-73
2023/05/04 11:30:32;;;;;;;8.82;6.10;;;;;;;;;;5090041;28;20136;-74
2023/05/04 11:33:02;;;;;;;11.63;7.05;;;;;;;;;;5088561;28;20036;-71
2023/05/04 11:35:28;;;;;;;10.52;6.93;;;;;;;;;;5080720;28;20048;-72
2023/05/04 11:37:56;;;;;;;11.20;7.05;;;;;;;;;;5089770;28;20040;-70
2023/05/04 11:40:22;;;;;;;11.10;7.20;;;;;;;;;;5085486;28;20079;-71
2023/05/04 11:42:51;;;;;;;8.23;6.68;;;;;;;;;;5090911;28;20513;-70
2023/05/04 11:45:24;;;;;;;10.73;6.63;;;;;;;;;;5086627;28;20388;-71
2023/05/04 11:47:51;;;;;;;12.23;6.38;;;;;;;;;;5084230;28;20126;-70
2023/05/04 11:50:18;;;;;;;11.63;6.88;;;;;;;;;;5093082;28;20063;-70
2023/05/04 11:52:44;;;;;;;10.80;6.97;;;;;;;;;;5092253;28;20044;-69
2023/05/04 11:55:11;;;;;;;12.82;7.00;;;;;;;;;;5089213;28;20071;-70
2023/05/04 11:57:37;;;;;;;13.00;7.28;;;;;;;;;;5085558;28;20119;-70
2023/05/04 12:00:05;;;;;;;11.15;6.90;;;;;;;;;;5090883;28;20521;-70
2023/05/04 12:02:31;;;;;;;12.57;7.28;;;;;;;;;;5089940;28;20498;-71
2023/05/04 12:04:57;;;;;;;9.45;6.57;;;;;;;;;;5092759;28;20044;-70
2023/05/04 12:07:23;;;;;;;11.77;6.60;;;;;;;;;;5083793;28;20626;-71
2023/05/04 12:09:49;;;;;;;28.63;9.23;;;;;;;;;;5077429;28;20042;-70
2023/05/04 12:12:17;;;;;;;20.25;8.45;;;;;;;;;;5089878;28;20482;-71
2023/05/04 12:14:56;;;;;;;17.27;7.57;;;;;;;;;;5080656;28;20040;-70
2023/05/04 12:17:23;;;;;;;9.65;6.68;;;;;;;;;;5074243;28;20070;-70
2023/05/04 12:19:56;;;;;;;15.23;9.43;;;;;;;;;;5087584;28;20169;-70
2023/05/04 12:22:22;;;;;;;;;;;;;;;;;;5082255;28;20075;-70
2023/05/04 12:24:48;;;;;;;10.77;6.72;;;;;;;;;;5085326;28;19955;-70
2023/05/04 12:27:14;;;;;;;9.80;6.57;;;;;;;;;;5087510;28;20505;-70
2023/05/04 12:29:40;;;;;;;10.30;6.95;;;;;;;;;;5079070;28;20080;-70
2023/05/04 12:32:06;;;;;;;12.27;6.55;;;;;;;;;;5083031;28;20036;-70
2023/05/04 12:34:33;;;;;;;9.75;6.90;;;;;;;;;;5089174;28;20133;-70
2023/05/04 12:36:59;;;;;;;10.68;6.75;;;;;;;;;;5086173;28;20459;-71
2023/05/04 12:39:26;;;;;;;11.52;7.53;;;;;;;;;;5073285;28;20075;-71
2023/05/04 12:41:52;;;;;;;11.10;7.60;;;;;;;;;;5084416;28;20051;-70
2023/05/04 12:44:18;;;;;;;13.18;6.15;;;;;;;;;;5086552;28;20044;-71
2023/05/04 12:46:44;;;;;;;10.93;7.15;;;;;;;;;;5087526;28;20117;-70
2023/05/04 12:49:12;;;;;;;12.85;6.97;;;;;;;;;;5089573;28;20066;-70
2023/05/04 12:51:38;;;;;;;15.57;7.57;;;;;;;;;;5084057;28;20045;-71
2023/05/04 12:54:04;;;;;;;10.73;7.15;;;;;;;;;;5082049;28;20055;-71
2023/05/04 12:56:31;;;;;;;12.48;7.90;;;;;;;;;;5081516;28;20044;-71
2023/05/04 12:58:57;;;;;;;11.55;7.05;;;;;;;;;;5089055;28;20040;-71
2023/05/04 13:01:23;;;;;;;11.23;7.25;;;;;;;;;;5086551;28;20479;-71
2023/05/04 13:03:49;;;;;;;10.02;8.10;;;;;;;;;;5087787;28;20046;-70
2023/05/04 13:06:15;;;;;;;10.10;7.93;;;;;;;;;;5089812;28;20072;-70
2023/05/04 13:08:41;;;;;;;11.88;7.40;;;;;;;;;;5084920;28;20097;-71
2023/05/04 13:11:07;;;;;;;9.35;6.05;;;;;;;;;;5092720;28;20036;-71
2023/05/04 13:13:34;;;;;;;16.80;7.72;;;;;;;;;;5077369;28;20036;-71
2023/05/04 13:16:00;;;;;;;11.35;6.90;;;;;;;;;;5087041;28;20073;-77
2023/05/04 13:18:26;;;;;;;8.23;6.57;;;;;;;;;;5080400;28;20052;-73
2023/05/04 13:20:55;;;;;;;10.75;6.85;;;;;;;;;;5090492;28;20055;-73
2023/05/04 13:23:21;;;;;;;10.27;6.65;;;;;;;;;;5076114;28;20067;-73
2023/05/04 13:25:49;;;;;;;8.88;6.95;;;;;;;;;;5086572;28;20487;-73
2023/05/04 13:28:15;;;;;;;8.68;6.90;;;;;;;;;;5085116;28;20391;-73
2023/05/04 13:30:41;;;;;;;8.45;6.90;;;;;;;;;;5084767;28;20056;-73
2023/05/04 13:33:07;;;;;;;12.52;6.82;;;;;;;;;;5079485;28;20040;-74
2023/05/04 13:35:33;;;;;;;8.73;6.53;;;;;;;;;;5071603;28;20181;-74
2023/05/04 13:37:59;;;;;;;8.02;6.90;;;;;;;;;;5070717;28;20101;-75
2023/05/04 13:40:26;;;;;;;9.43;6.43;;;;;;;;;;5088629;28;20067;-75
2023/05/04 13:42:52;;;;;;;9.43;6.63;;;;;;;;;;5082991;28;20388;-75
2023/05/04 13:45:18;;;;;;;9.50;6.53;;;;;;;;;;5087878;28;20403;-74
2023/05/04 13:47:45;;;;;;;10.27;6.60;;;;;;;;;;5082831;28;20550;-73
2023/05/04 13:50:12;;;;;;;9.50;6.65;;;;;;;;;;5085790;28;20448;-71
2023/05/04 13:52:38;;;;;;;9.25;6.50;;;;;;;;;;5078592;28;20043;-72
2023/05/04 13:55:04;;;;;;;9.80;6.30;;;;;;;;;;5089839;28;20105;-72
2023/05/04 13:57:30;;;;;;;8.27;6.68;;;;;;;;;;5088804;28;20048;-68
2023/05/04 13:59:57;;;;;;;8.95;6.53;;;;;;;;;;5085864;28;20055;-68
2023/05/04 14:02:23;;;;;;;7.90;6.68;;;;;;;;;;5084487;28;20044;-71
2023/05/04 14:04:49;;;;;;;9.55;6.65;;;;;;;;;;5089657;28;20036;-72
2023/05/04 14:07:16;;;;;;;9.02;6.88;;;;;;;;;;5090494;28;20535;-71
2023/05/04 14:09:42;;;;;;;10.82;6.80;;;;;;;;;;5081083;28;20035;-72
2023/05/04 14:12:09;;;;;;;7.38;6.25;;;;;;;;;;5077662;28;20051;-72
2023/05/04 14:14:35;;;;;;;7.97;6.35;;;;;;;;;;5091543;28;20483;-71
2023/05/04 14:17:01;;;;;;;7.88;6.50;;;;;;;;;;5090144;28;20066;-72
2023/05/04 14:19:27;;;;;;;8.15;6.38;;;;;;;;;;5090552;28;20105;-72
2023/05/04 14:21:53;;;;;;;9.68;6.32;;;;;;;;;;5094344;28;20051;-72
2023/05/04 14:24:20;;;;;;;9.85;6.22;;;;;;;;;;5089041;28;20044;-73
2023/05/04 14:26:46;;;;;;;10.15;6.72;;;;;;;;;;5086269;28;20131;-71
2023/05/04 14:29:12;;;;;;;7.75;5.90;;;;;;;;;;5088221;28;20530;-70
2023/05/04 14:31:41;;;;;;;11.27;6.72;;;;;;;;;;5088562;28;20072;-70